sensor_id;sensor_type;location;lat;lon;timestamp;P1;durP1;ratioP1;P2;durP2;ratioP2
23222;SDS011;11780;13.904;100.620;2022-07-24T00:02:02;15.15;;;9.23;;
23222;SDS011;11780;13.904;100.620;2022-07-24T00:04:32;15.80;;;10.73;;
23222;SDS011;11780;13.904;100.620;2022-07-24T00:07:03;11.95;;;8.15;;
23222;SDS011;11780;13.904;100.620;2022-07-24T00:09:33;15.00;;;10.68;;
23222;SDS011;11780;13.904;100.620;2022-07-24T00:12:03;16.17;;;9.43;;
23222;SDS011;11780;13.904;100.620;2022-07-24T00:14:34;14.18;;;9.93;;
23222;SDS011;11780;13.904;100.620;2022-07-24T00:17:04;12.50;;;8.48;;
23222;SDS011;11780;13.904;100.620;2022-07-24T00:19:35;18.58;;;11.10;;
23222;SDS011;11780;13.904;100.620;2022-07-24T00:22:05;15.27;;;10.40;;
23222;SDS011;11780;13.904;100.620;2022-07-24T00:24:36;11.90;;;8.52;;
23222;SDS011;11780;13.904;100.620;2022-07-24T00:27:06;18.50;;;10.25;;
23222;SDS011;11780;13.904;100.620;2022-07-24T00:29:36;16.67;;;9.60;;
23222;SDS011;11780;13.904;100.620;2022-07-24T00:32:07;17.42;;;10.77;;
23222;SDS011;11780;13.904;100.620;2022-07-24T00:34:37;13.13;;;9.93;;
23222;SDS011;11780;13.904;100.620;2022-07-24T00:37:07;12.70;;;8.70;;
23222;SDS011;11780;13.904;100.620;2022-07-24T00:39:37;13.63;;;9.20;;
23222;SDS011;11780;13.904;100.620;2022-07-24T00:42:07;13.77;;;9.20;;
23222;SDS011;11780;13.904;100.620;2022-07-24T00:44:37;17.90;;;8.93;;
23222;SDS011;11780;13.904;100.620;2022-07-24T00:47:07;17.70;;;9.13;;
23222;SDS011;11780;13.904;100.620;2022-07-24T00:49:37;19.77;;;8.95;;
23222;SDS011;11780;13.904;100.620;2022-07-24T00:52:07;20.60;;;9.55;;
23222;SDS011;11780;13.904;100.620;2022-07-24T00:54:38;16.27;;;7.70;;
23222;SDS011;11780;13.904;100.620;2022-07-24T00:57:09;14.30;;;7.97;;
23222;SDS011;11780;13.904;100.620;2022-07-24T00:59:39;13.43;;;8.48;;
23222;SDS011;11780;13.904;100.620;2022-07-24T01:02:09;15.13;;;7.70;;
23222;SDS011;11780;13.904;100.620;2022-07-24T01:04:41;13.75;;;8.05;;
23222;SDS011;11780;13.904;100.620;2022-07-24T01:07:14;14.38;;;8.10;;
23222;SDS011;11780;13.904;100.620;2022-07-24T01:09:45;17.75;;;8.82;;
23222;SDS011;11780;13.904;100.620;2022-07-24T01:12:16;12.43;;;9.27;;
23222;SDS011;11780;13.904;100.620;2022-07-24T01:17:17;14.30;;;8.38;;
23222;SDS011;11780;13.904;100.620;2022-07-24T01:19:49;13.68;;;7.57;;
23222;SDS011;11780;13.904;100.620;2022-07-24T01:22:19;12.23;;;7.82;;
23222;SDS011;11780;13.904;100.620;2022-07-24T01:24:49;17.10;;;8.07;;
23222;SDS011;11780;13.904;100.620;2022-07-24T01:27:20;11.95;;;9.27;;
23222;SDS011;11780;13.904;100.620;2022-07-24T01:29:55;18.55;;;8.20;;
23222;SDS011;11780;13.904;100.620;2022-07-24T01:32:25;14.82;;;8.10;;
23222;SDS011;11780;13.904;100.620;2022-07-24T01:34:55;17.35;;;9.13;;
23222;SDS011;11780;13.904;100.620;2022-07-24T01:37:26;12.32;;;8.20;;
23222;SDS011;11780;13.904;100.620;2022-07-24T01:39:56;14.13;;;8.73;;
23222;SDS011;11780;13.904;100.620;2022-07-24T01:42:26;12.43;;;7.28;;
23222;SDS011;11780;13.904;100.620;2022-07-24T01:44:56;12.55;;;7.70;;
23222;SDS011;11780;13.904;100.620;2022-07-24T01:47:26;16.58;;;10.48;;
23222;SDS011;11780;13.904;100.620;2022-07-24T01:49:57;13.95;;;7.65;;
23222;SDS011;11780;13.904;100.620;2022-07-24T01:52:26;12.30;;;7.20;;
23222;SDS011;11780;13.904;100.620;2022-07-24T01:54:57;11.07;;;6.60;;
23222;SDS011;11780;13.904;100.620;2022-07-24T01:57:27;10.65;;;7.07;;
23222;SDS011;11780;13.904;100.620;2022-07-24T01:59:58;17.10;;;8.30;;
23222;SDS011;11780;13.904;100.620;2022-07-24T02:05:10;9.65;;;6.10;;
23222;SDS011;11780;13.904;100.620;2022-07-24T02:07:53;10.50;;;6.25;;
23222;SDS011;11780;13.904;100.620;2022-07-24T02:10:28;10.13;;;5.93;;
23222;SDS011;11780;13.904;100.620;2022-07-24T02:13:00;11.13;;;6.10;;
23222;SDS011;11780;13.904;100.620;2022-07-24T02:15:32;11.65;;;5.55;;
23222;SDS011;11780;13.904;100.620;2022-07-24T02:18:02;9.00;;;5.80;;
23222;SDS011;11780;13.904;100.620;2022-07-24T02:20:33;7.13;;;5.85;;
23222;SDS011;11780;13.904;100.620;2022-07-24T02:23:03;9.30;;;6.47;;
23222;SDS011;11780;13.904;100.620;2022-07-24T02:25:33;8.60;;;6.63;;
23222;SDS011;11780;13.904;100.620;2022-07-24T02:28:03;10.07;;;6.78;;
23222;SDS011;11780;13.904;100.620;2022-07-24T02:30:33;12.07;;;7.32;;
23222;SDS011;11780;13.904;100.620;2022-07-24T02:33:03;5.68;;;5.13;;
23222;SDS011;11780;13.904;100.620;2022-07-24T02:35:33;11.57;;;6.22;;
23222;SDS011;11780;13.904;100.620;2022-07-24T02:38:04;6.97;;;5.60;;
23222;SDS011;11780;13.904;100.620;2022-07-24T02:40:34;7.20;;;5.25;;
23222;SDS011;11780;13.904;100.620;2022-07-24T02:43:05;10.75;;;5.75;;
23222;SDS011;11780;13.904;100.620;2022-07-24T02:45:35;11.13;;;5.95;;
23222;SDS011;11780;13.904;100.620;2022-07-24T02:53:08;10.95;;;6.22;;
23222;SDS011;11780;13.904;100.620;2022-07-24T02:55:38;6.22;;;5.05;;
23222;SDS011;11780;13.904;100.620;2022-07-24T02:58:09;10.13;;;5.80;;
23222;SDS011;11780;13.904;100.620;2022-07-24T03:00:39;10.23;;;5.55;;
23222;SDS011;11780;13.904;100.620;2022-07-24T03:03:09;10.43;;;5.50;;
23222;SDS011;11780;13.904;100.620;2022-07-24T03:05:40;8.30;;;4.78;;
23222;SDS011;11780;13.904;100.620;2022-07-24T03:08:10;4.82;;;4.18;;
23222;SDS011;11780;13.904;100.620;2022-07-24T03:10:41;7.82;;;5.13;;
23222;SDS011;11780;13.904;100.620;2022-07-24T03:13:11;6.55;;;5.20;;
23222;SDS011;11780;13.904;100.620;2022-07-24T03:15:41;6.80;;;4.30;;
23222;SDS011;11780;13.904;100.620;2022-07-24T03:18:12;8.73;;;5.47;;
23222;SDS011;11780;13.904;100.620;2022-07-24T03:20:48;9.52;;;5.50;;
23222;SDS011;11780;13.904;100.620;2022-07-24T03:23:19;11.50;;;5.63;;
23222;SDS011;11780;13.904;100.620;2022-07-24T03:25:49;9.70;;;5.07;;
23222;SDS011;11780;13.904;100.620;2022-07-24T03:28:20;16.08;;;6.50;;
23222;SDS011;11780;13.904;100.620;2022-07-24T03:30:50;10.70;;;5.30;;
23222;SDS011;11780;13.904;100.620;2022-07-24T03:33:20;6.30;;;4.25;;
23222;SDS011;11780;13.904;100.620;2022-07-24T03:35:50;5.35;;;4.47;;
23222;SDS011;11780;13.904;100.620;2022-07-24T03:38:20;5.78;;;3.97;;
23222;SDS011;11780;13.904;100.620;2022-07-24T03:40:51;8.35;;;4.43;;
23222;SDS011;11780;13.904;100.620;2022-07-24T03:43:21;9.27;;;3.77;;
23222;SDS011;11780;13.904;100.620;2022-07-24T03:45:51;7.25;;;3.58;;
23222;SDS011;11780;13.904;100.620;2022-07-24T03:48:21;8.00;;;4.25;;
23222;SDS011;11780;13.904;100.620;2022-07-24T03:50:52;8.85;;;4.78;;
23222;SDS011;11780;13.904;100.620;2022-07-24T03:53:22;7.07;;;4.15;;
23222;SDS011;11780;13.904;100.620;2022-07-24T03:55:55;5.43;;;4.03;;
23222;SDS011;11780;13.904;100.620;2022-07-24T03:58:26;6.35;;;4.15;;
23222;SDS011;11780;13.904;100.620;2022-07-24T04:00:56;9.30;;;4.85;;
23222;SDS011;11780;13.904;100.620;2022-07-24T04:03:26;6.67;;;3.93;;
23222;SDS011;11780;13.904;100.620;2022-07-24T04:05:58;7.37;;;4.30;;
23222;SDS011;11780;13.904;100.620;2022-07-24T04:08:34;8.52;;;4.72;;
23222;SDS011;11780;13.904;100.620;2022-07-24T04:11:04;7.30;;;4.75;;
23222;SDS011;11780;13.904;100.620;2022-07-24T04:13:37;7.88;;;4.45;;
23222;SDS011;11780;13.904;100.620;2022-07-24T04:16:10;7.93;;;5.13;;
23222;SDS011;11780;13.904;100.620;2022-07-24T04:18:40;6.07;;;4.35;;
23222;SDS011;11780;13.904;100.620;2022-07-24T04:21:10;7.32;;;4.35;;
23222;SDS011;11780;13.904;100.620;2022-07-24T04:23:41;6.40;;;4.53;;
23222;SDS011;11780;13.904;100.620;2022-07-24T04:26:11;7.77;;;5.07;;
23222;SDS011;11780;13.904;100.620;2022-07-24T04:28:41;5.90;;;4.53;;
23222;SDS011;11780;13.904;100.620;2022-07-24T04:33:43;7.60;;;4.50;;
23222;SDS011;11780;13.904;100.620;2022-07-24T04:36:13;5.88;;;4.30;;
23222;SDS011;11780;13.904;100.620;2022-07-24T04:38:43;8.67;;;4.10;;
23222;SDS011;11780;13.904;100.620;2022-07-24T04:41:13;6.97;;;3.92;;
23222;SDS011;11780;13.904;100.620;2022-07-24T04:43:46;6.32;;;3.83;;
23222;SDS011;11780;13.904;100.620;2022-07-24T04:48:50;7.37;;;4.00;;
23222;SDS011;11780;13.904;100.620;2022-07-24T04:51:21;4.68;;;3.17;;
23222;SDS011;11780;13.904;100.620;2022-07-24T04:53:52;6.72;;;3.88;;
23222;SDS011;11780;13.904;100.620;2022-07-24T04:56:22;5.72;;;4.13;;
23222;SDS011;11780;13.904;100.620;2022-07-24T04:58:53;6.20;;;4.07;;
23222;SDS011;11780;13.904;100.620;2022-07-24T05:01:23;6.00;;;4.40;;
23222;SDS011;11780;13.904;100.620;2022-07-24T05:03:54;5.80;;;5.03;;
23222;SDS011;11780;13.904;100.620;2022-07-24T05:06:26;4.65;;;3.85;;
23222;SDS011;11780;13.904;100.620;2022-07-24T05:08:56;9.83;;;4.70;;
23222;SDS011;11780;13.904;100.620;2022-07-24T05:11:27;6.43;;;4.55;;
23222;SDS011;11780;13.904;100.620;2022-07-24T05:13:58;5.57;;;3.90;;
23222;SDS011;11780;13.904;100.620;2022-07-24T05:16:28;9.73;;;4.20;;
23222;SDS011;11780;13.904;100.620;2022-07-24T05:18:58;6.93;;;4.05;;
23222;SDS011;11780;13.904;100.620;2022-07-24T05:21:29;8.57;;;4.57;;
23222;SDS011;11780;13.904;100.620;2022-07-24T05:24:01;9.50;;;3.63;;
23222;SDS011;11780;13.904;100.620;2022-07-24T05:26:32;7.32;;;3.50;;
23222;SDS011;11780;13.904;100.620;2022-07-24T05:31:35;3.75;;;3.20;;
23222;SDS011;11780;13.904;100.620;2022-07-24T05:34:08;4.25;;;3.38;;
23222;SDS011;11780;13.904;100.620;2022-07-24T05:36:38;7.18;;;3.58;;
23222;SDS011;11780;13.904;100.620;2022-07-24T05:39:08;4.07;;;3.22;;
23222;SDS011;11780;13.904;100.620;2022-07-24T05:41:38;5.82;;;3.28;;
23222;SDS011;11780;13.904;100.620;2022-07-24T05:44:09;5.05;;;3.38;;
23222;SDS011;11780;13.904;100.620;2022-07-24T05:49:11;5.63;;;3.55;;
23222;SDS011;11780;13.904;100.620;2022-07-24T05:51:41;6.40;;;3.60;;
23222;SDS011;11780;13.904;100.620;2022-07-24T05:54:12;6.57;;;3.93;;
23222;SDS011;11780;13.904;100.620;2022-07-24T05:56:42;6.17;;;3.90;;
23222;SDS011;11780;13.904;100.620;2022-07-24T05:59:13;7.78;;;4.70;;
23222;SDS011;11780;13.904;100.620;2022-07-24T06:01:43;5.03;;;3.10;;
23222;SDS011;11780;13.904;100.620;2022-07-24T06:04:14;7.33;;;3.57;;
23222;SDS011;11780;13.904;100.620;2022-07-24T06:06:44;5.85;;;3.47;;
23222;SDS011;11780;13.904;100.620;2022-07-24T06:09:14;4.05;;;3.22;;
23222;SDS011;11780;13.904;100.620;2022-07-24T06:11:45;4.25;;;3.40;;
23222;SDS011;11780;13.904;100.620;2022-07-24T06:14:15;6.20;;;3.92;;
23222;SDS011;11780;13.904;100.620;2022-07-24T06:16:45;5.30;;;3.65;;
23222;SDS011;11780;13.904;100.620;2022-07-24T06:19:15;5.68;;;3.28;;
23222;SDS011;11780;13.904;100.620;2022-07-24T06:21:45;6.15;;;3.42;;
23222;SDS011;11780;13.904;100.620;2022-07-24T06:24:15;7.85;;;4.05;;
23222;SDS011;11780;13.904;100.620;2022-07-24T06:26:45;5.45;;;3.35;;
23222;SDS011;11780;13.904;100.620;2022-07-24T06:29:36;5.88;;;3.10;;
23222;SDS011;11780;13.904;100.620;2022-07-24T06:32:06;7.40;;;3.37;;
23222;SDS011;11780;13.904;100.620;2022-07-24T06:34:36;8.10;;;3.53;;
23222;SDS011;11780;13.904;100.620;2022-07-24T06:37:07;6.50;;;3.30;;
23222;SDS011;11780;13.904;100.620;2022-07-24T06:39:37;5.93;;;3.05;;
23222;SDS011;11780;13.904;100.620;2022-07-24T06:42:07;3.35;;;2.67;;
23222;SDS011;11780;13.904;100.620;2022-07-24T06:44:37;4.07;;;2.72;;
23222;SDS011;11780;13.904;100.620;2022-07-24T06:47:08;5.35;;;3.20;;
23222;SDS011;11780;13.904;100.620;2022-07-24T06:49:38;4.93;;;2.75;;
23222;SDS011;11780;13.904;100.620;2022-07-24T06:52:09;3.50;;;2.78;;
23222;SDS011;11780;13.904;100.620;2022-07-24T06:54:39;4.47;;;3.05;;
23222;SDS011;11780;13.904;100.620;2022-07-24T06:57:11;4.05;;;3.00;;
23222;SDS011;11780;13.904;100.620;2022-07-24T06:59:41;7.15;;;3.70;;
23222;SDS011;11780;13.904;100.620;2022-07-24T07:02:12;4.77;;;3.73;;
23222;SDS011;11780;13.904;100.620;2022-07-24T07:04:42;7.23;;;4.50;;
23222;SDS011;11780;13.904;100.620;2022-07-24T07:07:12;4.38;;;3.85;;
23222;SDS011;11780;13.904;100.620;2022-07-24T07:09:44;8.65;;;4.70;;
23222;SDS011;11780;13.904;100.620;2022-07-24T07:12:15;4.63;;;3.70;;
23222;SDS011;11780;13.904;100.620;2022-07-24T07:14:45;4.28;;;3.88;;
23222;SDS011;11780;13.904;100.620;2022-07-24T07:17:15;5.45;;;4.18;;
23222;SDS011;11780;13.904;100.620;2022-07-24T07:19:45;5.63;;;4.25;;
23222;SDS011;11780;13.904;100.620;2022-07-24T07:22:15;4.68;;;4.25;;
23222;SDS011;11780;13.904;100.620;2022-07-24T07:24:45;7.63;;;4.30;;
23222;SDS011;11780;13.904;100.620;2022-07-24T07:27:15;6.13;;;4.33;;
23222;SDS011;11780;13.904;100.620;2022-07-24T07:32:16;8.18;;;3.90;;
23222;SDS011;11780;13.904;100.620;2022-07-24T07:34:46;5.07;;;3.90;;
23222;SDS011;11780;13.904;100.620;2022-07-24T07:37:20;3.60;;;3.22;;
23222;SDS011;11780;13.904;100.620;2022-07-24T07:39:50;4.40;;;3.60;;
23222;SDS011;11780;13.904;100.620;2022-07-24T07:42:24;5.32;;;3.72;;
23222;SDS011;11780;13.904;100.620;2022-07-24T07:44:55;4.93;;;4.17;;
23222;SDS011;11780;13.904;100.620;2022-07-24T07:47:26;5.13;;;3.55;;
23222;SDS011;11780;13.904;100.620;2022-07-24T07:49:56;4.10;;;3.70;;
23222;SDS011;11780;13.904;100.620;2022-07-24T07:54:57;6.78;;;4.20;;
23222;SDS011;11780;13.904;100.620;2022-07-24T07:57:27;6.32;;;3.58;;
23222;SDS011;11780;13.904;100.620;2022-07-24T08:00:17;5.65;;;3.50;;
23222;SDS011;11780;13.904;100.620;2022-07-24T08:05:18;4.07;;;3.63;;
23222;SDS011;11780;13.904;100.620;2022-07-24T08:07:49;11.65;;;4.28;;
23222;SDS011;11780;13.904;100.620;2022-07-24T08:10:19;5.80;;;4.33;;
23222;SDS011;11780;13.904;100.620;2022-07-24T08:12:50;5.18;;;3.75;;
23222;SDS011;11780;13.904;100.620;2022-07-24T08:15:20;5.85;;;3.78;;
23222;SDS011;11780;13.904;100.620;2022-07-24T08:17:51;5.37;;;3.90;;
23222;SDS011;11780;13.904;100.620;2022-07-24T08:20:25;4.47;;;3.88;;
23222;SDS011;11780;13.904;100.620;2022-07-24T08:22:56;4.50;;;3.88;;
23222;SDS011;11780;13.904;100.620;2022-07-24T08:25:27;4.50;;;3.88;;
23222;SDS011;11780;13.904;100.620;2022-07-24T08:27:57;6.13;;;4.28;;
23222;SDS011;11780;13.904;100.620;2022-07-24T08:30:27;5.75;;;4.70;;
23222;SDS011;11780;13.904;100.620;2022-07-24T08:32:57;4.60;;;4.18;;
23222;SDS011;11780;13.904;100.620;2022-07-24T08:35:27;6.63;;;4.60;;
23222;SDS011;11780;13.904;100.620;2022-07-24T08:37:59;6.25;;;4.45;;
23222;SDS011;11780;13.904;100.620;2022-07-24T08:40:33;4.32;;;3.90;;
23222;SDS011;11780;13.904;100.620;2022-07-24T08:43:07;4.90;;;4.40;;
23222;SDS011;11780;13.904;100.620;2022-07-24T08:45:41;4.47;;;4.07;;
23222;SDS011;11780;13.904;100.620;2022-07-24T08:48:15;6.07;;;4.38;;
23222;SDS011;11780;13.904;100.620;2022-07-24T08:50:49;3.92;;;3.53;;
23222;SDS011;11780;13.904;100.620;2022-07-24T08:53:21;5.05;;;4.47;;
23222;SDS011;11780;13.904;100.620;2022-07-24T08:55:52;15.10;;;4.60;;
23222;SDS011;11780;13.904;100.620;2022-07-24T08:58:22;16.25;;;4.40;;
23222;SDS011;11780;13.904;100.620;2022-07-24T09:00:53;11.20;;;3.95;;
23222;SDS011;11780;13.904;100.620;2022-07-24T09:03:23;4.22;;;3.65;;
23222;SDS011;11780;13.904;100.620;2022-07-24T09:05:57;5.70;;;3.50;;
23222;SDS011;11780;13.904;100.620;2022-07-24T09:08:28;4.00;;;3.53;;
23222;SDS011;11780;13.904;100.620;2022-07-24T09:11:00;3.90;;;3.35;;
23222;SDS011;11780;13.904;100.620;2022-07-24T09:13:33;4.07;;;3.50;;
23222;SDS011;11780;13.904;100.620;2022-07-24T09:16:23;3.95;;;3.40;;
23222;SDS011;11780;13.904;100.620;2022-07-24T09:19:08;6.75;;;4.15;;
23222;SDS011;11780;13.904;100.620;2022-07-24T09:21:42;4.68;;;3.75;;
23222;SDS011;11780;13.904;100.620;2022-07-24T09:24:17;5.00;;;4.35;;
23222;SDS011;11780;13.904;100.620;2022-07-24T09:26:50;5.72;;;4.05;;
23222;SDS011;11780;13.904;100.620;2022-07-24T09:29:23;5.15;;;4.07;;
23222;SDS011;11780;13.904;100.620;2022-07-24T09:31:56;6.78;;;4.97;;
23222;SDS011;11780;13.904;100.620;2022-07-24T09:34:29;4.68;;;4.20;;
23222;SDS011;11780;13.904;100.620;2022-07-24T09:37:08;5.53;;;4.22;;
23222;SDS011;11780;13.904;100.620;2022-07-24T09:39:45;7.30;;;4.70;;
23222;SDS011;11780;13.904;100.620;2022-07-24T09:42:16;8.13;;;5.40;;
23222;SDS011;11780;13.904;100.620;2022-07-24T09:44:48;8.20;;;5.20;;
23222;SDS011;11780;13.904;100.620;2022-07-24T09:47:27;5.70;;;4.72;;
23222;SDS011;11780;13.904;100.620;2022-07-24T09:50:37;6.40;;;5.10;;
23222;SDS011;11780;13.904;100.620;2022-07-24T09:52:59;10.60;;;6.00;;
23222;SDS011;11780;13.904;100.620;2022-07-24T12:14:16;19.23;;;5.85;;
23222;SDS011;11780;13.904;100.620;2022-07-24T12:16:55;12.65;;;5.15;;
23222;SDS011;11780;13.904;100.620;2022-07-24T12:19:25;13.55;;;4.65;;
23222;SDS011;11780;13.904;100.620;2022-07-24T12:21:56;10.55;;;4.10;;
23222;SDS011;11780;13.904;100.620;2022-07-24T12:24:26;7.10;;;3.22;;
23222;SDS011;11780;13.904;100.620;2022-07-24T12:27:00;10.35;;;3.92;;
23222;SDS011;11780;13.904;100.620;2022-07-24T12:29:31;9.57;;;3.65;;
23222;SDS011;11780;13.904;100.620;2022-07-24T12:32:14;9.93;;;3.90;;
23222;SDS011;11780;13.904;100.620;2022-07-24T12:34:47;6.82;;;3.75;;
23222;SDS011;11780;13.904;100.620;2022-07-24T12:37:38;9.98;;;3.72;;
23222;SDS011;11780;13.904;100.620;2022-07-24T12:40:08;8.10;;;3.67;;
23222;SDS011;11780;13.904;100.620;2022-07-24T12:42:57;8.68;;;3.40;;
23222;SDS011;11780;13.904;100.620;2022-07-24T12:45:29;6.72;;;3.13;;
23222;SDS011;11780;13.904;100.620;2022-07-24T12:50:58;6.68;;;3.20;;
23222;SDS011;11780;13.904;100.620;2022-07-24T12:53:31;8.35;;;3.90;;
23222;SDS011;11780;13.904;100.620;2022-07-24T12:58:54;3.45;;;2.55;;
23222;SDS011;11780;13.904;100.620;2022-07-24T13:01:26;3.00;;;2.65;;
23222;SDS011;11780;13.904;100.620;2022-07-24T13:03:59;5.78;;;2.70;;
23222;SDS011;11780;13.904;100.620;2022-07-24T13:06:35;5.85;;;2.88;;
23222;SDS011;11780;13.904;100.620;2022-07-24T13:09:09;4.13;;;2.97;;
23222;SDS011;11780;13.904;100.620;2022-07-24T13:11:40;4.72;;;2.60;;
23222;SDS011;11780;13.904;100.620;2022-07-24T13:14:13;3.55;;;2.53;;
23222;SDS011;11780;13.904;100.620;2022-07-24T13:16:45;4.47;;;2.65;;
23222;SDS011;11780;13.904;100.620;2022-07-24T13:19:17;4.55;;;2.65;;
23222;SDS011;11780;13.904;100.620;2022-07-24T13:21:49;4.10;;;2.28;;
23222;SDS011;11780;13.904;100.620;2022-07-24T13:24:19;3.75;;;2.42;;
23222;SDS011;11780;13.904;100.620;2022-07-24T13:26:50;5.50;;;3.05;;
23222;SDS011;11780;13.904;100.620;2022-07-24T13:29:27;5.05;;;2.60;;
23222;SDS011;11780;13.904;100.620;2022-07-24T13:31:57;4.27;;;2.80;;
23222;SDS011;11780;13.904;100.620;2022-07-24T13:34:28;4.72;;;2.80;;
23222;SDS011;11780;13.904;100.620;2022-07-24T13:36:58;3.47;;;2.43;;
23222;SDS011;11780;13.904;100.620;2022-07-24T13:39:29;5.43;;;2.22;;
23222;SDS011;11780;13.904;100.620;2022-07-24T13:41:59;2.80;;;2.33;;
23222;SDS011;11780;13.904;100.620;2022-07-24T13:44:29;3.40;;;2.50;;
23222;SDS011;11780;13.904;100.620;2022-07-24T13:47:00;4.43;;;2.17;;
23222;SDS011;11780;13.904;100.620;2022-07-24T13:49:30;5.50;;;2.33;;
23222;SDS011;11780;13.904;100.620;2022-07-24T13:52:01;4.85;;;3.38;;
23222;SDS011;11780;13.904;100.620;2022-07-24T13:54:35;12.43;;;2.90;;
23222;SDS011;11780;13.904;100.620;2022-07-24T13:57:05;4.28;;;2.60;;
23222;SDS011;11780;13.904;100.620;2022-07-24T13:59:35;3.95;;;2.70;;
23222;SDS011;11780;13.904;100.620;2022-07-24T14:02:06;3.17;;;2.60;;
23222;SDS011;11780;13.904;100.620;2022-07-24T14:04:36;4.95;;;2.90;;
23222;SDS011;11780;13.904;100.620;2022-07-24T14:07:06;6.13;;;2.95;;
23222;SDS011;11780;13.904;100.620;2022-07-24T14:09:37;6.90;;;2.22;;
23222;SDS011;11780;13.904;100.620;2022-07-24T14:12:07;5.28;;;2.90;;
23222;SDS011;11780;13.904;100.620;2022-07-24T14:14:40;5.43;;;3.00;;
23222;SDS011;11780;13.904;100.620;2022-07-24T14:17:11;5.72;;;3.08;;
23222;SDS011;11780;13.904;100.620;2022-07-24T14:19:41;7.30;;;3.10;;
23222;SDS011;11780;13.904;100.620;2022-07-24T14:22:11;6.07;;;2.92;;
23222;SDS011;11780;13.904;100.620;2022-07-24T14:24:41;5.72;;;3.10;;
23222;SDS011;11780;13.904;100.620;2022-07-24T14:27:12;4.88;;;2.67;;
23222;SDS011;11780;13.904;100.620;2022-07-24T14:29:42;6.32;;;3.35;;
23222;SDS011;11780;13.904;100.620;2022-07-24T14:32:12;4.85;;;3.50;;
23222;SDS011;11780;13.904;100.620;2022-07-24T14:34:42;5.32;;;3.60;;
23222;SDS011;11780;13.904;100.620;2022-07-24T14:37:13;4.95;;;3.90;;
23222;SDS011;11780;13.904;100.620;2022-07-24T14:39:45;5.95;;;3.83;;
23222;SDS011;11780;13.904;100.620;2022-07-24T14:42:15;5.83;;;3.93;;
23222;SDS011;11780;13.904;100.620;2022-07-24T14:44:47;7.47;;;4.13;;
23222;SDS011;11780;13.904;100.620;2022-07-24T14:47:17;5.63;;;4.00;;
23222;SDS011;11780;13.904;100.620;2022-07-24T14:49:47;5.45;;;4.05;;
23222;SDS011;11780;13.904;100.620;2022-07-24T14:52:19;4.60;;;3.63;;
23222;SDS011;11780;13.904;100.620;2022-07-24T14:54:50;4.53;;;3.40;;
23222;SDS011;11780;13.904;100.620;2022-07-24T14:57:20;10.95;;;4.00;;
23222;SDS011;11780;13.904;100.620;2022-07-24T14:59:50;4.15;;;2.72;;
23222;SDS011;11780;13.904;100.620;2022-07-24T15:02:21;5.23;;;3.03;;
23222;SDS011;11780;13.904;100.620;2022-07-24T15:04:51;3.00;;;2.80;;
23222;SDS011;11780;13.904;100.620;2022-07-24T15:07:21;4.25;;;3.17;;
23222;SDS011;11780;13.904;100.620;2022-07-24T15:09:56;4.38;;;3.00;;
23222;SDS011;11780;13.904;100.620;2022-07-24T15:12:26;3.53;;;2.72;;
23222;SDS011;11780;13.904;100.620;2022-07-24T15:14:56;4.38;;;3.10;;
23222;SDS011;11780;13.904;100.620;2022-07-24T15:17:26;4.28;;;3.30;;
23222;SDS011;11780;13.904;100.620;2022-07-24T15:19:56;5.05;;;2.80;;
23222;SDS011;11780;13.904;100.620;2022-07-24T15:22:26;6.22;;;3.38;;
23222;SDS011;11780;13.904;100.620;2022-07-24T15:24:56;4.18;;;2.78;;
23222;SDS011;11780;13.904;100.620;2022-07-24T15:27:26;3.78;;;2.90;;
23222;SDS011;11780;13.904;100.620;2022-07-24T15:29:56;3.75;;;3.30;;
23222;SDS011;11780;13.904;100.620;2022-07-24T15:32:28;6.05;;;3.20;;
23222;SDS011;11780;13.904;100.620;2022-07-24T15:34:58;4.57;;;3.33;;
23222;SDS011;11780;13.904;100.620;2022-07-24T15:37:28;3.88;;;3.33;;
23222;SDS011;11780;13.904;100.620;2022-07-24T15:39:58;4.78;;;3.33;;
23222;SDS011;11780;13.904;100.620;2022-07-24T15:42:28;4.28;;;2.90;;
23222;SDS011;11780;13.904;100.620;2022-07-24T15:44:58;4.18;;;3.50;;
23222;SDS011;11780;13.904;100.620;2022-07-24T15:47:28;3.53;;;3.13;;
23222;SDS011;11780;13.904;100.620;2022-07-24T15:49:58;4.32;;;3.88;;
23222;SDS011;11780;13.904;100.620;2022-07-24T15:52:28;5.63;;;3.67;;
23222;SDS011;11780;13.904;100.620;2022-07-24T15:54:59;4.05;;;3.50;;
23222;SDS011;11780;13.904;100.620;2022-07-24T15:57:29;6.03;;;3.90;;
23222;SDS011;11780;13.904;100.620;2022-07-24T15:59:59;6.13;;;3.47;;
23222;SDS011;11780;13.904;100.620;2022-07-24T16:02:30;4.28;;;2.90;;
23222;SDS011;11780;13.904;100.620;2022-07-24T16:05:00;4.20;;;3.78;;
23222;SDS011;11780;13.904;100.620;2022-07-24T16:07:32;3.47;;;3.17;;
23222;SDS011;11780;13.904;100.620;2022-07-24T16:10:03;5.05;;;3.47;;
23222;SDS011;11780;13.904;100.620;2022-07-24T16:12:34;4.60;;;3.65;;
23222;SDS011;11780;13.904;100.620;2022-07-24T16:15:10;3.60;;;3.30;;
23222;SDS011;11780;13.904;100.620;2022-07-24T16:17:41;3.33;;;3.00;;
23222;SDS011;11780;13.904;100.620;2022-07-24T16:20:12;3.70;;;3.20;;
23222;SDS011;11780;13.904;100.620;2022-07-24T16:22:43;5.93;;;3.50;;
23222;SDS011;11780;13.904;100.620;2022-07-24T16:25:14;6.93;;;3.10;;
23222;SDS011;11780;13.904;100.620;2022-07-24T16:27:45;3.65;;;3.00;;
23222;SDS011;11780;13.904;100.620;2022-07-24T16:30:15;6.00;;;3.55;;
23222;SDS011;11780;13.904;100.620;2022-07-24T16:32:45;4.63;;;3.13;;
23222;SDS011;11780;13.904;100.620;2022-07-24T16:35:16;4.05;;;3.20;;
23222;SDS011;11780;13.904;100.620;2022-07-24T16:37:46;7.78;;;3.33;;
23222;SDS011;11780;13.904;100.620;2022-07-24T16:40:17;5.90;;;2.90;;
23222;SDS011;11780;13.904;100.620;2022-07-24T16:42:50;4.28;;;3.10;;
23222;SDS011;11780;13.904;100.620;2022-07-24T16:45:22;6.78;;;2.80;;
23222;SDS011;11780;13.904;100.620;2022-07-24T16:48:08;5.15;;;2.88;;
23222;SDS011;11780;13.904;100.620;2022-07-24T16:50:38;6.70;;;3.10;;
23222;SDS011;11780;13.904;100.620;2022-07-24T16:53:08;3.88;;;3.03;;
23222;SDS011;11780;13.904;100.620;2022-07-24T16:55:45;5.00;;;3.20;;
23222;SDS011;11780;13.904;100.620;2022-07-24T16:58:15;4.10;;;2.45;;
23222;SDS011;11780;13.904;100.620;2022-07-24T17:00:46;3.00;;;2.70;;
23222;SDS011;11780;13.904;100.620;2022-07-24T17:03:16;5.18;;;3.15;;
23222;SDS011;11780;13.904;100.620;2022-07-24T17:08:19;7.50;;;3.10;;
23222;SDS011;11780;13.904;100.620;2022-07-24T17:10:49;7.88;;;3.15;;
23222;SDS011;11780;13.904;100.620;2022-07-24T17:13:19;6.45;;;3.13;;
23222;SDS011;11780;13.904;100.620;2022-07-24T17:15:49;5.45;;;2.90;;
23222;SDS011;11780;13.904;100.620;2022-07-24T17:18:22;5.18;;;2.80;;
23222;SDS011;11780;13.904;100.620;2022-07-24T17:20:52;5.30;;;3.17;;
23222;SDS011;11780;13.904;100.620;2022-07-24T17:23:22;5.72;;;3.50;;
23222;SDS011;11780;13.904;100.620;2022-07-24T17:25:53;4.20;;;2.90;;
23222;SDS011;11780;13.904;100.620;2022-07-24T17:28:23;7.72;;;3.13;;
23222;SDS011;11780;13.904;100.620;2022-07-24T17:30:54;5.17;;;2.80;;
23222;SDS011;11780;13.904;100.620;2022-07-24T17:33:28;4.57;;;2.90;;
23222;SDS011;11780;13.904;100.620;2022-07-24T17:35:58;6.00;;;3.22;;
23222;SDS011;11780;13.904;100.620;2022-07-24T17:38:29;7.28;;;3.05;;